• Join FlightAware (Why Join?)
  • Login
  • US Flag 
12:43AM EDT


 

Airport Tracker/Info


-or-


 

Live Flight TrackerFlight Track Log ✈ DAL1022 ✈ 22-Jul-2013 ✈ KATL - KABQ

Flight Track Log - Related Links

Times and Time Zones

All times are in EDT time to prevent confusion due to time zone crossing. See the DAL1022 flight status page for this flight to view local times or setup timezone preferences in your user account.

Time Position Orientation Groundspeed Altitude Reporting Facility
EDT Latitude Longitude Course Direction KTS MPH feet Rate Location/Type
11:30AM 33.6500 -84.5000 252° West 216 249 3,700  Level Atlanta TRACON
11:31AM 33.6667 -84.5833 284° West 254 292 6,600 2,820 Climbing Atlanta TRACON
11:32AM 33.8001 -84.4001 270° West  Level FlightAware Approximate
11:32AM 33.6833 -84.6667 284° West 268 308 9,400  Level Atlanta TRACON
11:33AM 33.8000 -84.5499 270° West  Level FlightAware Approximate
11:34AM 33.7783 -84.6955 252° West  Level FlightAware Approximate
11:34AM 33.6847 -84.8975 270° West 333 383 13,400  Level Atlanta Center
11:35AM 33.7390 -84.8376 252° West  Level FlightAware Approximate
11:35AM 33.6733 -85.0197 264° West 374 430 15,800  Level Atlanta Center
11:36AM 33.6600 -85.1319 262° West 379 436 17,700 1,800 Climbing Atlanta Center
11:37AM 33.6503 -85.2642 265° West 390 449 19,500 1,800 Climbing Atlanta Center
11:39AM 33.6556 -85.5411 271° West 411 473 23,100 1,680 Climbing Atlanta Center
11:40AM 33.6561 -85.6833 270° West 426 490 24,700 1,500 Climbing Atlanta Center
11:41AM 33.6600 -85.8408 272° West 432 497 26,200 1,440 Climbing Atlanta Center
11:42AM 33.6597 -85.9906 270° West 438 504 27,600 1,260 Climbing Atlanta Center
11:43AM 33.6636 -86.1428 272° West 448 516 28,800 1,140 Climbing Atlanta Center
11:44AM 33.6631 -86.2975 270° West 461 531 29,900 600 Climbing Atlanta Center
11:45AM 33.6661 -86.4572 271° West 472 543 30,000  Climbing Atlanta Center
11:46AM 33.6669 -86.6197 270° West 477 549 30,000  Level Atlanta Center
11:47AM 33.6656 -86.7792 269° West 477 549 30,000  Level Atlanta Center
11:48AM 33.6664 -86.9367 270° West 477 549 30,000  Level Atlanta Center
11:49AM 33.6586 -87.0786 266° West 477 549 30,000  Level Atlanta Center
11:50AM 33.6506 -87.2381 267° West 477 549 30,000 420 Level Atlanta Center
11:51AM 33.6431 -87.4128 267° West 486 559 30,900 960 Climbing Memphis Center
11:52AM 33.6319 -87.5678 265° West 480 552 32,000 540 Climbing Memphis Center
11:53AM 33.6228 -87.7178 266° West 474 545 32,000  Level Memphis Center
11:54AM 33.6172 -87.8553 267° West 469 540 32,000 180 Level Memphis Center
11:55AM 33.6100 -88.0100 267° West 464 534 32,400 1,980 Climbing Memphis Center
11:56AM 33.6022 -88.1600 266° West 464 534 36,000 1,320 Climbing Memphis Center
11:57AM 33.5922 -88.3097 265° West 464 534 35,100  Descending Memphis Center
11:58AM 33.5864 -88.4619 267° West 464 534 36,000 420 Climbing Memphis Center
11:59AM 33.5781 -88.6119 266° West 464 534 36,000  Level Memphis Center
12:00PM 33.5656 -88.7592 264° West 459 528 36,000  Level Memphis Center
12:01PM 33.5589 -88.9139 267° West 464 534 36,000  Level Memphis Center
12:02PM 33.5503 -89.0636 266° West 464 534 36,000  Level Memphis Center
12:03PM 33.5392 -89.2133 265° West 464 534 36,000  Level Memphis Center
12:04PM 33.5281 -89.3803 265° West 464 534 36,000  Level Memphis Center
12:05PM 33.5186 -89.5300 266° West 464 534 36,000  Level Memphis Center
12:06PM 33.5092 -89.6794 266° West 464 534 36,000  Level Memphis Center
12:07PM 33.4975 -89.8292 265° West 459 528 36,000  Level Memphis Center
12:08PM 33.4875 -89.9761 265° West 459 528 36,000  Level Memphis Center
12:09PM 33.4775 -90.1206 265° West 454 522 36,000  Level Memphis Center
12:10PM 33.4672 -90.2700 265° West 454 522 36,000  Level Memphis Center
12:11PM 33.4819 -90.4119 277° West 442 509 36,000  Level Memphis Center
12:12PM 33.5006 -90.5564 279° West 442 509 36,000  Level Memphis Center
12:13PM 33.5211 -90.6986 280° West 442 509 36,000  Level Memphis Center
12:14PM 33.5372 -90.8283 279° West 450 518 36,000  Level Memphis Center
12:15PM 33.5575 -90.9706 280° West 445 512 36,000  Level Memphis Center
12:16PM 33.5756 -91.1153 279° West 445 512 36,000  Level Memphis Center
12:17PM 33.5933 -91.2575 279° West 445 512 36,000  Level Memphis Center
12:18PM 33.6133 -91.3997 280° West 440 506 36,000  Level Memphis Center
12:19PM 33.6328 -91.5447 279° West 445 512 36,000  Level Memphis Center
12:20PM 33.6481 -91.6897 277° West 445 512 36,000  Level Memphis Center
12:21PM 33.6736 -91.8325 282° West 445 512 36,000  Level Memphis Center
12:22PM 33.6886 -91.9775 277° West 445 512 36,000  Level Memphis Center
12:23PM 33.7075 -92.1228 279° West 445 512 36,000  Level Memphis Center
12:24PM 33.7242 -92.2653 278° West 445 512 36,000  Level Memphis Center
12:25PM 33.7386 -92.4106 277° West 445 512 36,000  Level Memphis Center
12:26PM 33.7569 -92.5533 279° West 445 512 36,000  Level Memphis Center
12:27PM 33.7750 -92.7011 278° West 445 512 36,000  Level Memphis Center
12:29PM 33.8125 -93.0164 278° West 445 512 36,000  Level Fort Worth Center
12:30PM 33.8281 -93.1606 277° West 445 512 36,000  Level Fort Worth Center
12:31PM 33.8453 -93.3022 278° West 445 512 36,000  Level Fort Worth Center
12:32PM 33.8603 -93.4467 277° West 445 512 36,000  Level Fort Worth Center
12:33PM 33.8753 -93.5961 277° West 445 512 36,000  Level Fort Worth Center
12:34PM 33.8922 -93.7403 278° West 445 512 36,000  Level Fort Worth Center
12:35PM 33.9067 -93.8850 277° West 445 512 36,000  Level Fort Worth Center
12:36PM 33.9233 -94.0294 278° West 445 512 36,000  Level Fort Worth Center
12:37PM 33.9397 -94.1739 278° West 445 512 36,000  Level Fort Worth Center
12:38PM 33.9517 -94.3161 276° West 445 512 36,000  Level Fort Worth Center
12:39PM 33.9675 -94.4633 277° West 445 512 36,000  Level Fort Worth Center
12:40PM 33.9814 -94.6056 277° West 445 512 36,000  Level Fort Worth Center
12:41PM 33.9928 -94.7506 275° West 445 512 36,000  Level Fort Worth Center
12:42PM 34.0061 -94.8931 276° West 445 512 36,000  Level Fort Worth Center
12:43PM 34.0214 -95.0353 277° West 439 505 36,000  Level Fort Worth Center
12:44PM 34.0344 -95.1778 276° West 439 505 36,000  Level Fort Worth Center
12:45PM 34.0517 -95.3228 278° West 444 511 36,000  Level Fort Worth Center
12:46PM 34.0603 -95.4656 274° West 439 505 36,000  Level Fort Worth Center
12:47PM 34.0747 -95.5906 278° West 432 497 36,000  Level Fort Worth Center
12:48PM 34.0872 -95.7483 276° West 427 491 36,000  Level Fort Worth Center
12:49PM 34.0972 -95.8836 275° West 432 497 36,000  Level Fort Worth Center
12:50PM 34.1094 -96.0264 276° West 432 497 36,000  Level Fort Worth Center
12:51PM 34.1214 -96.1692 276° West 432 497 36,000  Level Fort Worth Center
12:52PM 34.1331 -96.3119 276° West 432 497 36,000  Level Fort Worth Center
12:53PM 34.1447 -96.4600 275° West 437 503 36,000  Level Fort Worth Center
12:54PM 34.1583 -96.6028 277° West 437 503 36,000  Level Fort Worth Center
12:55PM 34.1717 -96.7508 276° West 442 509 36,000  Level Fort Worth Center
12:56PM 34.1847 -96.8964 276° West 442 509 36,000  Level Fort Worth Center
12:57PM 34.1958 -97.0419 275° West 442 509 36,000  Level Fort Worth Center
12:58PM 34.2086 -97.1875 276° West 442 509 36,000  Level Fort Worth Center
12:59PM 34.2172 -97.3356 274° West 442 509 36,000  Level Fort Worth Center
01:00PM 34.2256 -97.4839 274° West 442 509 36,000  Level Fort Worth Center
01:01PM 34.2358 -97.6319 275° West 442 509 36,000  Level Fort Worth Center
01:02PM 34.2436 -97.7828 274° West 442 509 36,000  Level Fort Worth Center
01:03PM 34.2536 -97.9411 274° West 442 509 36,000  Level Fort Worth Center
01:04PM 34.2633 -98.0869 275° West 442 509 36,000 -360 Level Fort Worth Center
01:05PM 34.2728 -98.2378 274° West 442 509 35,300 -840 Descending Fort Worth Center
01:06PM 34.2800 -98.3836 273° West 442 509 34,400 -660 Descending Fort Worth Center
01:07PM 34.2872 -98.5319 273° West 442 509 34,000 -240 Descending Fort Worth Center
01:08PM 34.2983 -98.6806 275° West 442 509 34,000  Level Fort Worth Center
01:09PM 34.3050 -98.8289 273° West 448 516 34,000  Level Fort Worth Center
01:10PM 34.3139 -98.9775 274° West 443 510 34,000  Level Fort Worth Center
01:11PM 34.3203 -99.1208 273° West 443 510 34,000  Level Fort Worth Center
01:12PM 34.3283 -99.2744 274° West 448 516 34,000  Level Fort Worth Center
01:13PM 34.3344 -99.4231 273° West 448 516 34,000  Level Fort Worth Center
01:14PM 34.3425 -99.5767 274° West 453 521 34,000  Level Fort Worth Center
01:15PM 34.3461 -99.7200 272° West 462 532 34,000  Level Fort Worth Center
01:16PM 34.3539 -99.8611 274° West 457 526 34,000  Level Fort Worth Center
01:17PM 34.3592 -100.0097 273° West 452 520 34,000  Level Fort Worth Center
01:18PM 34.3664 -100.1633 273° West 452 520 34,000  Level Fort Worth Center
01:19PM 34.3775 -100.3122 275° West 452 520 34,000  Level Fort Worth Center
01:20PM 34.4078 -100.4281 288° West 455 524 34,000  Level Albuquerque Center
01:21PM 34.4447 -100.5728 287° West 450 518 34,000  Level Albuquerque Center
01:22PM 34.4819 -100.7178 287° West 450 518 34,000  Level Albuquerque Center
01:23PM 34.5269 -100.8922 287° West 452 520 34,000  Level Albuquerque Center
01:24PM 34.5644 -101.0383 287° West 453 521 34,000  Level Albuquerque Center
01:25PM 34.6006 -101.1836 287° West 451 519 34,000  Level Albuquerque Center
01:26PM 34.6386 -101.3306 288° West 454 522 34,000  Level Albuquerque Center
01:27PM 34.6753 -101.4769 287° West 453 521 34,000  Level Albuquerque Center
01:28PM 34.7111 -101.6256 286° West 455 524 34,000  Level Albuquerque Center
01:29PM 34.7464 -101.7750 286° West 457 526 34,000  Level Albuquerque Center
01:30PM 34.7894 -101.9531 286° West 456 525 34,000  Level Albuquerque Center
01:31PM 34.8261 -102.1022 287° West 457 526 34,000  Level Albuquerque Center
01:32PM 34.8633 -102.2508 287° West 457 526 34,000  Level Albuquerque Center
01:33PM 34.8992 -102.4003 286° West 458 527 34,000  Level Albuquerque Center
01:34PM 34.9347 -102.5497 286° West 459 528 34,000  Level Albuquerque Center
01:35PM 34.9753 -102.7167 287° West 459 528 34,000  Level Albuquerque Center
01:36PM 35.0103 -102.8667 286° West 458 527 34,000  Level Albuquerque Center
01:38PM 35.0467 -103.0167 287° West 457 526 34,000  Level Albuquerque Center
01:39PM 35.0822 -103.1667 286° West 456 525 34,000  Level Albuquerque Center
01:40PM 35.1167 -103.3161 286° West 455 524 34,000  Level Albuquerque Center
01:41PM 35.1522 -103.4664 286° West 456 525 34,000  Level Albuquerque Center
01:42PM 35.1828 -103.6164 284° West 454 522 34,000  Level Albuquerque Center
01:43PM 35.1744 -103.7997 267° West 459 528 34,000  Level Albuquerque Center
01:45PM 35.1603 -104.1181 267° West 460 529 34,000  Level Albuquerque Center
01:46PM 35.1517 -104.2722 266° West 457 526 34,000  Level Albuquerque Center
01:47PM 35.1456 -104.4261 267° West 456 525 34,000 -60 Level Albuquerque Center
01:48PM 35.1361 -104.5914 266° West 456 525 33,900 -540 Descending Albuquerque Center
01:49PM 35.1269 -104.7519 266° West 465 535 33,000 -960 Descending Albuquerque Center
01:50PM 35.1194 -104.9128 267° West 469 540 32,000 -1,260 Descending Albuquerque Center
01:51PM 35.1083 -105.0736 265° West 472 543 30,500 -1,500 Descending Albuquerque Center
01:52PM 35.0856 -105.2333 260° West 473 544 28,900 -2,520 Descending Albuquerque Center
01:53PM 35.0575 -105.4183 260° West 473 544 25,400 -2,640 Descending Albuquerque Center
01:54PM 35.0317 -105.5678 258° West 451 519 23,500 -1,980 Descending Albuquerque Center
01:55PM 35.0144 -105.6653 258° West 403 464 22,000 -2,160 Descending Albuquerque Center
01:56PM 34.9914 -105.7961 258° West 389 448 19,900 -2,160 Descending Albuquerque Center
01:57PM 34.9711 -105.9211 259° West 373 429 17,700 -1,680 Descending Albuquerque Center
01:58PM 34.9558 -106.0367 261° West 351 404 16,600 -1,320 Descending Albuquerque Center
01:59PM 34.9714 -106.1467 280° West 319 367 15,100 -1,680 Descending Albuquerque Center
02:00PM 34.9614 -106.2583 264° West 314 361 13,200 -1,800 Descending Albuquerque Center
02:01PM 34.9458 -106.3636 260° West 314 361 11,500 -1,680 Descending Albuquerque Center
02:02PM 34.9314 -106.4631 260° West 300 345 9,900 -1,500 Descending Albuquerque Center
02:02PM 34.9242 -106.5019 257° West 306 352 9,300 -720 Descending Albuquerque Center
02:03PM 34.9181 -106.5572 262° West 270 311 9,200 -300 Descending Albuquerque Center
02:03PM 34.9108 -106.5939 257° West 291 335 9,000 -1,020 Descending Albuquerque Center
02:04PM 34.9039 -106.6464 261° West 239 275 8,100 -1,020 Descending Albuquerque Center
02:05PM 34.9094 -106.7150 276° West 198 228 7,400 -720 Descending Albuquerque Center